Terminal Aerodrome Forecast
Issued by NWS Blacksburg, VA

Current Version | Previous Version | Graphics & Text | Print | Product List | Glossary On
Versions: 1 2 3 4 5 6 7 8 9 10 11 12 13 14 15 16 17 18 19 20 21 22 23 24
000
FTUS41 KRNK 291137
TAFBLF
TAF
KBLF 291137Z 2912/3012 00000KT P6SM BKN250
     FM291600 VRB03KT P6SM SCT040
     FM292000 18004KT P6SM -SHRA BKN040
     FM300000 20004KT P6SM BKN100=

USA.gov is the U.S. government's official web portal to all federal, state and local government web resources and services.